Midvalley, Pennsylvania
Current Conditions -  °F | °C
As of 10:35 PM on Tuesday 25 Nov 2014 (Local Time) from KHZL Reporting Station
Clear Clear  
Wind Chill: 35°   Ceiling: Unl
Heat Index: 41°   Visibility: 10mi
Dew Point: 30°   Wind: 9mph
Humidity: 65%   Direction: 290°WNW
Pressure: 30.13"   Gusts: NA
Location:  40.8229°N, 76.3735°W
Report Text: KHZL 260335Z AUTO 29008KT 10SM CLR 05/M01 A3013 RMK AO2
Loading
Personal Weather Stations






























Interactive Weather Map New forecast layout! Learn more

10-Day Weather Forecast

Advertisements
Track Severe Weather on mobile